PWSweather.com
Personal Weather Stations
Station Observations
WISCHPK61
Green Bay Schmitt Park, Green Bay, WI 54311

Green Bay Schmitt ParkGreen Bay, WI 54311

Lat: 44.514277, Lon: -87.935067

Elevation: 735

Station Type: Acu Rite Pro Weather Center model 02032C

http://greenbayweathercam.com

High Low Average
Temperature 88.0°F31.1°C 61.3°F16.3°C 72.7°F22.6°C
Dew Point 87.7°F30.9°C 55.8°F13.2°C 71.1°F21.7°C
Winds 2.3 mph 3.7 kmh Calm Calm Calm SWCalm SW
Wind Gusts 4.6 mph7.4 kmh -- --
Humidity 99% 65% 95%
Pressure 29.27 in991.2 mb 29.16 in987.5 mb -
Precipitation 0.00 in0.0 mm - -
Hour Temp Dew Point Humidity Winds Wind Gusts Pressure Precip Precip Rate Daily Precip Total
12:00 AM 72.3°F22.4°C 72.0°F22.2°C 99% Calm Calm -- 29.16 in987.5 mb - 0.00 in0.0 mm 0.00 in0.0 mm
01:00 AM 70.7°F21.5°C 70.4°F21.3°C 99% Calm Calm -- 29.16 in987.5 mb - 0.00 in0.0 mm 0.00 in0.0 mm
02:00 AM 69.3°F20.7°C 69.0°F20.6°C 99% Calm Calm -- 29.16 in987.5 mb - 0.00 in0.0 mm 0.00 in0.0 mm
03:00 AM 68.4°F20.2°C 68.1°F20.1°C 99% Calm Calm -- 29.17 in987.8 mb - 0.00 in0.0 mm 0.00 in0.0 mm
04:00 AM 67.5°F19.7°C 65.4°F18.6°C 93% Calm Calm -- 29.18 in988.1 mb - 0.00 in0.0 mm 0.00 in0.0 mm
05:00 AM 67.1°F19.5°C 65.6°F18.7°C 95% Calm Calm 1.2 mph1.9 kmh 29.20 in988.8 mb - 0.00 in0.0 mm 0.00 in0.0 mm
06:00 AM 66.7°F19.3°C 63.4°F17.4°C 89% Calm Calm -- 29.20 in988.8 mb - 0.00 in0.0 mm 0.00 in0.0 mm
07:00 AM 66.6°F19.2°C 66.3°F19.1°C 99% 2.3 mph NNW3.7 kmh NNW 4.6 mph7.4 kmh 29.23 in989.8 mb - 0.00 in0.0 mm 0.00 in0.0 mm
08:00 AM 66.9°F19.4°C 66.6°F19.2°C 99% Calm Calm -- 29.24 in990.2 mb - 0.00 in0.0 mm 0.00 in0.0 mm
09:00 AM 68.5°F20.3°C 68.2°F20.1°C 99% 1.2 mph NNW1.9 kmh NNW 1.2 mph1.9 kmh 29.25 in990.5 mb - 0.00 in0.0 mm 0.00 in0.0 mm
10:00 AM 71.4°F21.9°C 69.6°F20.9°C 94% 1.2 mph W1.9 kmh W 2.3 mph3.7 kmh 29.25 in990.5 mb - 0.00 in0.0 mm 0.00 in0.0 mm
11:00 AM 74.1°F23.4°C 73.8°F23.2°C 99% Calm Calm -- 29.25 in990.5 mb - 0.00 in0.0 mm 0.00 in0.0 mm
12:00 PM 77.6°F25.3°C 77.3°F25.2°C 99% Calm Calm 2.3 mph3.7 kmh 29.25 in990.5 mb - 0.00 in0.0 mm 0.00 in0.0 mm
01:00 PM 81.8°F27.7°C 81.5°F27.5°C 99% Calm Calm -- 29.26 in990.9 mb - 0.00 in0.0 mm 0.00 in0.0 mm
02:00 PM 85.8°F29.9°C 80.0°F26.7°C 83% Calm Calm -- 29.26 in990.9 mb - 0.00 in0.0 mm 0.00 in0.0 mm
03:00 PM 86.5°F30.3°C 86.2°F30.1°C 99% Calm Calm -- 29.25 in990.5 mb - 0.00 in0.0 mm 0.00 in0.0 mm
04:00 PM 88.0°F31.1°C 87.7°F30.9°C 99% Calm Calm -- 29.25 in990.5 mb - 0.00 in0.0 mm 0.00 in0.0 mm
05:00 PM 82.6°F28.1°C 82.3°F27.9°C 99% Calm Calm -- 29.24 in990.2 mb - 0.00 in0.0 mm 0.00 in0.0 mm
06:00 PM 78.4°F25.8°C 78.1°F25.6°C 99% Calm Calm -- 29.24 in990.2 mb - 0.00 in0.0 mm 0.00 in0.0 mm
07:00 PM 76.3°F24.6°C 76.0°F24.4°C 99% Calm Calm -- 29.24 in990.2 mb - 0.00 in0.0 mm 0.00 in0.0 mm
08:00 PM 72.6°F22.6°C 72.3°F22.4°C 99% Calm Calm -- 29.24 in990.2 mb - 0.00 in0.0 mm 0.00 in0.0 mm
09:00 PM 68.0°F20.0°C 55.8°F13.2°C 65% Calm Calm -- 29.25 in990.5 mb - 0.00 in0.0 mm 0.00 in0.0 mm
10:00 PM 64.8°F18.2°C 64.5°F18.1°C 99% Calm Calm -- 29.27 in991.2 mb - 0.00 in0.0 mm 0.00 in0.0 mm
11:00 PM 62.8°F17.1°C 58.5°F14.7°C 86% Calm Calm -- 29.27 in991.2 mb - 0.00 in0.0 mm 0.00 in0.0 mm